createdAt,value
2024-05-09T00:00:39.262Z,7.13
2024-05-09T00:03:08.397Z,7.00
2024-05-09T00:05:36.813Z,7.40
2024-05-09T00:08:04.350Z,7.60
2024-05-09T00:10:36.430Z,6.57
2024-05-09T00:13:06.527Z,7.23
2024-05-09T00:15:33.919Z,7.27
2024-05-09T00:18:01.403Z,7.57
2024-05-09T00:20:36.566Z,6.87
2024-05-09T00:23:07.478Z,7.37
2024-05-09T00:25:35.015Z,7.47
2024-05-09T00:28:02.236Z,7.43
2024-05-09T00:30:34.341Z,7.20
2024-05-09T00:33:04.899Z,8.00
2024-05-09T00:35:32.697Z,7.10
2024-05-09T00:37:59.866Z,8.07
2024-05-09T00:40:37.280Z,7.80
2024-05-09T00:43:06.940Z,6.97
2024-05-09T00:45:35.049Z,6.50
2024-05-09T00:48:06.200Z,5.77
2024-05-09T00:50:36.897Z,5.37
2024-05-09T00:53:06.682Z,5.10
2024-05-09T00:55:35.228Z,5.40
2024-05-09T00:58:02.788Z,5.13
2024-05-09T01:00:37.780Z,5.90
2024-05-09T01:03:07.662Z,6.53
2024-05-09T01:05:35.649Z,6.53
2024-05-09T01:08:03.364Z,7.43
2024-05-09T01:10:34.624Z,7.03
2024-05-09T01:13:07.050Z,7.77
2024-05-09T01:15:35.154Z,8.40
2024-05-09T01:18:13.372Z,8.40
2024-05-09T01:20:43.532Z,8.50
2024-05-09T01:23:13.974Z,8.67
2024-05-09T01:25:43.002Z,8.37
2024-05-09T01:28:09.850Z,8.57
2024-05-09T01:30:37.862Z,8.47
2024-05-09T01:33:08.116Z,8.43
2024-05-09T01:35:36.912Z,7.70
2024-05-09T01:38:04.108Z,8.20
2024-05-09T01:40:38.314Z,7.90
2024-05-09T01:43:07.817Z,8.07
2024-05-09T01:45:34.986Z,8.77
2024-05-09T01:48:02.598Z,7.50
2024-05-09T01:50:37.969Z,8.30
2024-05-09T01:53:09.537Z,8.20
2024-05-09T01:55:36.627Z,8.00
2024-05-09T01:58:03.460Z,8.07
2024-05-09T02:00:38.402Z,7.93
2024-05-09T02:03:15.549Z,7.83
2024-05-09T02:05:49.575Z,7.97
2024-05-09T02:08:18.956Z,8.00
2024-05-09T02:10:47.798Z,7.47
2024-05-09T02:13:15.274Z,7.67
2024-05-09T02:15:42.283Z,7.87
2024-05-09T02:18:09.980Z,7.30
2024-05-09T02:20:39.405Z,7.60
2024-05-09T02:23:07.100Z,7.20
2024-05-09T02:25:34.988Z,7.17
2024-05-09T02:28:03.090Z,6.47
2024-05-09T02:30:38.574Z,6.20
2024-05-09T02:33:10.381Z,6.20
2024-05-09T02:35:39.103Z,6.20
2024-05-09T02:38:06.116Z,5.93
2024-05-09T02:40:37.199Z,6.37
2024-05-09T02:43:07.281Z,6.20
2024-05-09T02:45:34.339Z,6.33
2024-05-09T02:48:02.057Z,6.13
2024-05-09T02:50:36.637Z,6.53
2024-05-09T02:53:06.991Z,6.97
2024-05-09T02:55:34.232Z,6.90
2024-05-09T02:58:01.074Z,6.97
2024-05-09T03:00:36.679Z,6.80
2024-05-09T03:03:08.477Z,6.73
2024-05-09T03:05:37.210Z,6.73
2024-05-09T03:08:04.734Z,6.80
2024-05-09T03:10:36.133Z,6.50
2024-05-09T03:13:13.364Z,7.40
2024-05-09T03:15:42.031Z,7.13
2024-05-09T03:18:09.211Z,7.83
2024-05-09T03:20:37.202Z,7.07
2024-05-09T03:23:06.092Z,7.73
2024-05-09T03:25:33.557Z,9.03
2024-05-09T03:28:00.457Z,8.23
2024-05-09T03:30:38.624Z,8.47
2024-05-09T03:33:14.067Z,9.17
2024-05-09T03:35:42.445Z,9.20
2024-05-09T03:38:09.699Z,9.03
2024-05-09T03:40:37.035Z,9.43
2024-05-09T03:43:04.052Z,9.97
2024-05-09T03:45:30.800Z,11.10
2024-05-09T03:47:58.867Z,11.13
2024-05-09T03:50:33.684Z,11.93
2024-05-09T03:53:02.657Z,10.77
2024-05-09T03:55:29.699Z,11.00
2024-05-09T03:57:57.662Z,11.30
2024-05-09T04:00:31.410Z,11.33
2024-05-09T04:03:06.278Z,11.90
2024-05-09T04:05:35.192Z,11.73
2024-05-09T04:08:02.353Z,12.43
2024-05-09T04:10:33.495Z,11.53
2024-05-09T04:13:02.499Z,11.63
2024-05-09T04:15:29.650Z,11.37
2024-05-09T04:17:56.743Z,12.30
2024-05-09T04:20:34.350Z,12.67
2024-05-09T04:23:07.178Z,11.93
2024-05-09T04:25:34.774Z,12.03
2024-05-09T04:28:01.710Z,13.73
2024-05-09T04:30:37.381Z,12.53
2024-05-09T04:33:09.407Z,13.70
2024-05-09T04:35:38.491Z,12.77
2024-05-09T04:38:06.227Z,12.33
2024-05-09T04:40:36.033Z,13.13
2024-05-09T04:43:13.702Z,13.57
2024-05-09T04:45:40.918Z,12.70
2024-05-09T04:48:08.391Z,12.47
2024-05-09T04:50:38.349Z,12.50
2024-05-09T04:53:09.559Z,12.57
2024-05-09T04:55:37.631Z,12.67
2024-05-09T04:58:05.491Z,12.97
2024-05-09T05:00:37.189Z,12.33
2024-05-09T05:03:10.087Z,12.73
2024-05-09T05:05:42.667Z,12.20
2024-05-09T05:08:17.733Z,12.40
2024-05-09T05:10:46.263Z,12.37
2024-05-09T05:13:20.772Z,11.33
2024-05-09T05:15:53.263Z,11.53
2024-05-09T05:18:20.498Z,11.60
2024-05-09T05:20:48.362Z,11.67
2024-05-09T05:23:18.407Z,10.83
2024-05-09T05:25:49.634Z,11.00
2024-05-09T05:28:17.326Z,11.17
2024-05-09T05:30:44.753Z,10.73
2024-05-09T05:33:13.791Z,10.33
2024-05-09T05:35:41.581Z,11.23
2024-05-09T05:38:09.605Z,10.87
2024-05-09T05:40:38.568Z,11.27
2024-05-09T05:43:10.798Z,11.00
2024-05-09T05:45:39.121Z,10.37
2024-05-09T05:48:07.486Z,10.40
2024-05-09T05:50:37.414Z,10.50
2024-05-09T05:53:10.177Z,10.23
2024-05-09T05:55:38.714Z,10.50
2024-05-09T05:58:05.491Z,9.90
2024-05-09T06:00:38.698Z,10.17
2024-05-09T06:03:08.717Z,9.40
2024-05-09T06:05:37.321Z,9.30
2024-05-09T06:08:04.836Z,9.90
2024-05-09T06:10:38.060Z,9.30
2024-05-09T06:13:07.552Z,9.27
2024-05-09T06:15:34.520Z,10.00
2024-05-09T06:18:01.709Z,9.20
2024-05-09T06:20:35.662Z,8.60
2024-05-09T06:23:06.076Z,9.27
2024-05-09T06:25:33.389Z,8.90
2024-05-09T06:28:03.753Z,9.33
2024-05-09T06:30:38.561Z,8.93
2024-05-09T06:33:10.207Z,9.10
2024-05-09T06:35:38.528Z,8.40
2024-05-09T06:38:08.619Z,8.60
2024-05-09T06:40:38.376Z,8.20
2024-05-09T06:43:11.669Z,8.77
2024-05-09T06:45:39.872Z,8.57
2024-05-09T06:48:08.500Z,7.70
2024-05-09T06:50:38.112Z,8.00
2024-05-09T06:53:07.010Z,7.77
2024-05-09T06:55:34.012Z,8.93
2024-05-09T06:58:00.903Z,8.10
2024-05-09T07:00:35.377Z,8.07
2024-05-09T07:03:16.214Z,8.17
2024-05-09T07:05:46.058Z,8.47
2024-05-09T07:08:13.596Z,7.43
2024-05-09T07:10:40.506Z,7.30
2024-05-09T07:13:11.762Z,7.07
2024-05-09T07:15:39.822Z,7.20
2024-05-09T07:18:17.997Z,7.20
2024-05-09T07:20:46.710Z,6.40
2024-05-09T07:23:14.000Z,6.47
2024-05-09T07:25:41.795Z,7.17
2024-05-09T07:28:18.546Z,7.20
2024-05-09T07:30:45.920Z,6.33
2024-05-09T07:33:17.553Z,6.33
2024-05-09T07:35:44.723Z,6.83
2024-05-09T07:38:11.733Z,6.32
2024-05-09T07:40:39.375Z,6.63
2024-05-09T07:43:08.113Z,5.70
2024-05-09T07:53:36.725Z,6.10
2024-05-09T07:55:56.222Z,5.90
2024-05-09T07:58:27.498Z,5.50
2024-05-09T08:00:54.926Z,5.97
2024-05-09T08:03:22.614Z,5.10
2024-05-09T08:05:49.605Z,5.13
2024-05-09T08:08:16.761Z,5.32
2024-05-09T08:10:43.819Z,5.20
2024-05-09T08:13:10.934Z,4.68
2024-05-09T08:15:38.135Z,3.78
2024-05-09T08:18:09.786Z,4.28
2024-05-09T08:20:41.166Z,4.40
2024-05-09T08:23:08.262Z,3.90
2024-05-09T08:25:35.005Z,4.47
2024-05-09T08:28:04.365Z,3.78
2024-05-09T08:30:36.703Z,3.60
2024-05-09T08:33:06.392Z,3.40
2024-05-09T08:35:34.426Z,3.70
2024-05-09T08:38:07.518Z,3.05
2024-05-09T08:40:36.755Z,2.95
2024-05-09T08:43:11.609Z,2.78
2024-05-09T08:45:44.054Z,2.75
2024-05-09T08:48:14.340Z,2.90
2024-05-09T08:50:42.289Z,2.70
2024-05-09T08:53:09.553Z,2.65
2024-05-09T08:55:40.548Z,2.53
2024-05-09T08:58:15.110Z,2.78
2024-05-09T09:00:44.403Z,2.53
2024-05-09T09:03:15.574Z,2.53
2024-05-09T09:05:50.288Z,2.30
2024-05-09T09:08:17.474Z,2.83
2024-05-09T09:10:46.335Z,3.33
2024-05-09T09:13:13.262Z,3.03
2024-05-09T09:15:47.995Z,2.40
2024-05-09T09:18:16.078Z,2.30
2024-05-09T09:20:43.610Z,2.35
2024-05-09T09:23:10.578Z,2.50
2024-05-09T09:25:41.548Z,2.40
2024-05-09T09:28:09.327Z,2.45
2024-05-09T09:30:43.320Z,2.45
2024-05-09T09:33:11.513Z,2.15
2024-05-09T09:35:41.607Z,2.28
2024-05-09T09:38:10.612Z,1.90
2024-05-09T09:40:44.995Z,1.80
2024-05-09T09:43:20.943Z,2.00
2024-05-09T09:45:53.418Z,1.88
2024-05-09T09:48:22.057Z,1.95
2024-05-09T09:50:52.099Z,2.00
2024-05-09T09:53:19.701Z,2.13
2024-05-09T09:55:47.109Z,1.80
2024-05-09T09:58:15.929Z,2.35
2024-05-09T10:00:43.014Z,2.20
2024-05-09T10:03:09.992Z,1.95
2024-05-09T10:05:38.485Z,1.70
2024-05-09T10:08:08.132Z,2.10
2024-05-09T10:10:36.151Z,2.13
2024-05-09T10:13:04.685Z,1.98
2024-05-09T10:15:45.502Z,1.88
2024-05-09T10:18:12.812Z,1.95
2024-05-09T10:20:44.049Z,2.22
2024-05-09T10:23:37.152Z,1.85
2024-05-09T10:26:06.156Z,2.10
2024-05-09T10:28:37.882Z,2.03
2024-05-09T10:31:11.637Z,1.80
2024-05-09T10:33:40.529Z,2.08
2024-05-09T10:36:15.116Z,2.10
2024-05-09T10:38:43.102Z,1.90
2024-05-09T10:41:11.243Z,2.00
2024-05-09T10:43:43.273Z,2.15
2024-05-09T10:46:12.100Z,2.58
2024-05-09T10:48:41.536Z,2.28
2024-05-09T10:51:08.780Z,2.00
2024-05-09T10:53:43.095Z,2.30
2024-05-09T10:56:11.164Z,2.22
2024-05-09T10:58:38.012Z,2.20
2024-05-09T11:01:07.215Z,2.13
2024-05-09T11:03:35.307Z,2.20
2024-05-09T11:06:02.679Z,2.28
2024-05-09T11:08:31.833Z,2.05
2024-05-09T11:10:59.749Z,2.22
2024-05-09T11:13:34.790Z,2.30
2024-05-09T11:16:02.781Z,2.22
2024-05-09T11:18:35.131Z,2.28
2024-05-09T11:21:12.304Z,1.98
2024-05-09T11:23:39.537Z,2.10
2024-05-09T11:26:07.152Z,2.10
2024-05-09T11:28:34.015Z,1.92
2024-05-09T11:31:09.350Z,2.30
2024-05-09T11:33:38.963Z,1.75
2024-05-09T11:36:07.275Z,2.10
2024-05-09T11:38:34.167Z,2.22
2024-05-09T11:41:02.280Z,2.00
2024-05-09T11:43:29.297Z,2.17
2024-05-09T11:45:57.823Z,1.80
2024-05-09T11:48:25.804Z,1.80
2024-05-09T11:50:53.690Z,1.98
2024-05-09T11:53:20.553Z,2.80
2024-05-09T11:55:47.392Z,2.30
2024-05-09T11:58:17.213Z,2.15
2024-05-09T12:00:44.739Z,1.92
2024-05-09T12:03:11.702Z,1.80
2024-05-09T12:05:38.825Z,2.00
2024-05-09T12:08:06.851Z,2.50
2024-05-09T12:10:35.805Z,2.10
2024-05-09T12:13:05.840Z,2.28
2024-05-09T12:15:37.051Z,1.90
2024-05-09T12:18:05.497Z,2.28
2024-05-09T12:20:37.502Z,1.75
2024-05-09T12:23:07.398Z,1.70
2024-05-09T12:25:35.847Z,1.90
2024-05-09T12:28:02.942Z,1.83
2024-05-09T12:30:36.577Z,1.85
2024-05-09T12:33:12.177Z,2.08
2024-05-09T12:35:40.198Z,2.03
2024-05-09T12:38:07.027Z,1.90
2024-05-09T12:40:37.450Z,2.20
2024-05-09T12:43:10.196Z,2.17
2024-05-09T12:45:38.472Z,1.98
2024-05-09T12:48:08.363Z,1.92
2024-05-09T12:50:36.124Z,1.65
2024-05-09T12:53:04.275Z,1.88
2024-05-09T12:55:40.845Z,2.08
2024-05-09T12:58:18.309Z,2.10
2024-05-09T13:00:45.618Z,1.95
2024-05-09T13:03:13.124Z,1.92
2024-05-09T13:05:45.158Z,2.58
2024-05-09T13:08:12.995Z,1.85
2024-05-09T13:10:40.041Z,2.10
2024-05-09T13:13:07.085Z,1.73
2024-05-09T13:15:37.258Z,1.42
2024-05-09T13:18:05.778Z,1.77
2024-05-09T13:20:35.333Z,1.85
2024-05-09T13:23:04.960Z,1.98
2024-05-09T13:25:34.271Z,1.88
2024-05-09T13:28:01.527Z,1.98
2024-05-09T13:30:37.346Z,2.03
2024-05-09T13:33:07.697Z,2.17
2024-05-09T13:35:35.591Z,2.10
2024-05-09T13:38:04.362Z,1.80
2024-05-09T13:40:34.770Z,2.08
2024-05-09T13:43:04.555Z,1.95
2024-05-09T13:45:32.064Z,1.83
2024-05-09T13:47:59.258Z,1.55
2024-05-09T13:50:33.977Z,1.80
2024-05-09T13:53:05.109Z,1.90
2024-05-09T13:55:32.897Z,1.80
2024-05-09T13:58:00.278Z,2.00
2024-05-09T14:00:38.320Z,1.90
2024-05-09T14:03:11.936Z,1.73
2024-05-09T14:05:39.027Z,1.92
2024-05-09T14:08:06.216Z,1.63
2024-05-09T14:10:33.169Z,1.77
2024-05-09T14:13:01.149Z,1.70
2024-05-09T14:15:28.206Z,2.85
2024-05-09T14:17:55.590Z,1.80
2024-05-09T14:20:30.654Z,1.98
2024-05-09T14:23:00.803Z,1.75
2024-05-09T14:25:29.250Z,1.80
2024-05-09T14:27:57.697Z,1.30
2024-05-09T14:30:31.217Z,1.75
2024-05-09T14:33:04.356Z,1.70
2024-05-09T14:35:31.449Z,2.00
2024-05-09T14:37:58.787Z,1.48
2024-05-09T14:40:36.242Z,2.15
2024-05-09T14:43:08.487Z,2.10
2024-05-09T14:45:35.750Z,1.70
2024-05-09T14:48:03.974Z,2.40
2024-05-09T14:50:36.603Z,1.80
2024-05-09T14:53:07.437Z,1.70
2024-05-09T14:55:37.377Z,1.60
2024-05-09T14:58:09.845Z,1.60
2024-05-09T15:00:46.090Z,1.95
2024-05-09T15:03:21.021Z,1.42
2024-05-09T15:05:49.464Z,2.00
2024-05-09T15:08:18.202Z,2.33
2024-05-09T15:10:45.753Z,1.45
2024-05-09T15:13:15.483Z,2.08
2024-05-09T15:15:43.416Z,1.63
2024-05-09T15:18:10.462Z,2.70
2024-05-09T15:20:37.985Z,1.95
2024-05-09T15:23:07.106Z,2.25
2024-05-09T15:25:34.669Z,1.90
2024-05-09T15:28:01.655Z,1.55
2024-05-09T15:30:32.024Z,1.50
2024-05-09T15:33:03.834Z,1.80
2024-05-09T15:35:31.276Z,1.55
2024-05-09T15:37:58.154Z,1.90
2024-05-09T15:40:34.788Z,2.00
2024-05-09T15:43:07.271Z,2.30
2024-05-09T15:45:34.894Z,2.80
2024-05-09T15:48:03.297Z,3.15
2024-05-09T15:50:37.209Z,2.97
2024-05-09T15:53:08.805Z,2.22
2024-05-09T15:55:36.530Z,2.40
2024-05-09T15:58:04.483Z,2.00
2024-05-09T16:00:37.731Z,1.52
2024-05-09T16:03:09.014Z,1.52
2024-05-09T16:05:36.802Z,1.70
2024-05-09T16:08:04.494Z,1.65
2024-05-09T16:10:33.310Z,1.73
2024-05-09T16:13:02.185Z,1.50
2024-05-09T16:15:29.490Z,1.52
2024-05-09T16:17:56.600Z,1.65
2024-05-09T16:22:53.503Z,1.70
2024-05-09T16:25:20.426Z,1.80
2024-05-09T16:27:47.610Z,1.55
2024-05-09T16:30:24.058Z,1.80
2024-05-09T16:32:55.873Z,2.53
2024-05-09T16:35:22.777Z,2.67
2024-05-09T16:37:49.979Z,1.67
2024-05-09T16:40:25.358Z,2.30
2024-05-09T16:43:03.738Z,1.63
2024-05-09T16:45:31.033Z,1.77
2024-05-09T16:47:58.680Z,1.70
2024-05-09T16:50:29.658Z,39.13
2024-05-09T16:53:00.128Z,15.23
2024-05-09T16:55:27.279Z,57.05
2024-05-09T16:57:55.286Z,21.50
2024-05-09T17:00:31.585Z,7.03
2024-05-09T17:03:07.425Z,29.42
2024-05-09T17:05:35.371Z,11.30
2024-05-09T17:08:03.023Z,16.65
2024-05-09T17:10:33.572Z,9.27
2024-05-09T17:13:07.206Z,5.95
2024-05-09T17:15:36.259Z,1.85
2024-05-09T17:18:05.110Z,1.55
2024-05-09T17:20:35.292Z,1.85
2024-05-09T17:23:05.912Z,1.90
2024-05-09T17:25:33.512Z,1.55
2024-05-09T17:28:06.102Z,2.05
2024-05-09T17:30:36.988Z,1.60
2024-05-09T17:33:07.470Z,1.33
2024-05-09T17:35:35.984Z,1.90
2024-05-09T17:38:04.118Z,1.70
2024-05-09T17:40:34.923Z,1.58
2024-05-09T17:43:05.164Z,8.15
2024-05-09T17:45:32.768Z,34.03
2024-05-09T17:48:00.163Z,2.00
2024-05-09T17:50:34.725Z,30.20
2024-05-09T17:53:04.279Z,3.00
2024-05-09T17:55:31.341Z,2.40
2024-05-09T17:57:58.420Z,1.80
2024-05-09T18:02:57.682Z,1.50
2024-05-09T18:05:24.756Z,1.70
2024-05-09T18:07:51.944Z,2.15
2024-05-09T18:10:25.479Z,1.70
2024-05-09T18:12:56.935Z,1.75
2024-05-09T18:15:23.748Z,1.60
2024-05-09T18:17:52.393Z,1.50
2024-05-09T18:20:28.732Z,1.50
2024-05-09T18:23:05.364Z,1.30
2024-05-09T18:25:32.267Z,1.70
2024-05-09T18:27:59.246Z,1.50
2024-05-09T18:30:32.311Z,1.23
2024-05-09T18:33:02.294Z,1.55
2024-05-09T18:35:29.353Z,1.52
2024-05-09T18:37:56.280Z,1.60
2024-05-09T18:40:31.307Z,1.85
2024-05-09T18:43:02.724Z,2.42
2024-05-09T18:45:29.837Z,5.27
2024-05-09T18:47:58.447Z,2.63
2024-05-09T18:50:32.630Z,1.63
2024-05-09T18:53:06.185Z,1.53
2024-05-09T18:55:33.303Z,1.83
2024-05-09T18:58:00.473Z,1.75
2024-05-09T19:00:34.350Z,1.92
2024-05-09T19:03:06.216Z,2.10
2024-05-09T19:05:35.905Z,1.97
2024-05-09T19:08:03.356Z,1.77
2024-05-09T19:10:34.383Z,2.00
2024-05-09T19:13:06.711Z,2.00
2024-05-09T19:15:37.701Z,1.93
2024-05-09T19:18:05.111Z,1.70
2024-05-09T19:20:34.796Z,1.87
2024-05-09T19:23:03.156Z,2.03
2024-05-09T19:25:30.213Z,2.55
2024-05-09T19:27:57.344Z,2.27
2024-05-09T19:30:33.002Z,2.10
2024-05-09T19:33:06.049Z,2.30
2024-05-09T19:35:33.152Z,2.00
2024-05-09T19:38:00.231Z,2.00
2024-05-09T19:40:31.810Z,2.33
2024-05-09T19:43:01.735Z,2.30
2024-05-09T19:45:29.379Z,2.60
2024-05-09T19:47:56.521Z,3.20
2024-05-09T19:50:32.125Z,4.17
2024-05-09T19:53:06.814Z,4.40
2024-05-09T19:55:33.902Z,3.63
2024-05-09T19:58:04.901Z,3.57
2024-05-09T20:00:39.451Z,3.63
2024-05-09T20:03:09.517Z,3.70
2024-05-09T20:05:37.678Z,3.50
2024-05-09T20:08:05.745Z,3.43
2024-05-09T20:10:35.091Z,4.00
2024-05-09T20:13:07.155Z,2.90
2024-05-09T20:15:36.414Z,2.20
2024-05-09T20:18:04.393Z,3.20
2024-05-09T20:20:37.755Z,2.67
2024-05-09T20:23:09.012Z,2.40
2024-05-09T20:25:36.145Z,2.47
2024-05-09T20:28:03.166Z,3.00
2024-05-09T20:30:32.910Z,2.23
2024-05-09T20:33:07.172Z,2.50
2024-05-09T20:35:35.476Z,2.93
2024-05-09T20:38:03.415Z,2.33
2024-05-09T20:40:35.073Z,2.80
2024-05-09T20:43:05.702Z,2.70
2024-05-09T20:45:33.252Z,2.55
2024-05-09T20:48:00.661Z,2.60
2024-05-09T20:50:36.391Z,2.40
2024-05-09T20:53:09.215Z,2.50
2024-05-09T20:55:36.635Z,2.10
2024-05-09T20:58:03.592Z,2.10
2024-05-09T21:00:38.847Z,2.20
2024-05-09T21:03:09.535Z,2.00
2024-05-09T21:05:36.702Z,2.20
2024-05-09T21:08:03.959Z,2.30
2024-05-09T21:10:33.303Z,2.10
2024-05-09T21:13:02.674Z,2.47
2024-05-09T21:15:30.197Z,2.20
2024-05-09T21:17:57.262Z,2.40
2024-05-09T21:20:30.500Z,2.13
2024-05-09T21:22:59.028Z,2.23
2024-05-09T21:25:25.907Z,2.33
2024-05-09T21:27:52.978Z,2.80
2024-05-09T21:30:31.380Z,2.00
2024-05-09T21:33:06.294Z,2.27
2024-05-09T21:35:33.456Z,2.23
2024-05-09T21:38:00.279Z,2.73
2024-05-09T21:40:33.869Z,2.40
2024-05-09T21:43:03.402Z,2.40
2024-05-09T21:45:30.513Z,2.43
2024-05-09T21:47:57.504Z,2.60
2024-05-09T21:50:32.198Z,2.20
2024-05-09T21:53:06.557Z,1.93
2024-05-09T21:55:34.063Z,1.87
2024-05-09T21:58:01.177Z,2.00
2024-05-09T22:00:35.400Z,2.10
2024-05-09T22:03:05.588Z,2.27
2024-05-09T22:05:32.966Z,2.50
2024-05-09T22:08:00.124Z,2.23
2024-05-09T22:10:33.268Z,1.93
2024-05-09T22:13:02.590Z,2.30
2024-05-09T22:15:29.481Z,2.30
2024-05-09T22:17:57.514Z,2.30
2024-05-09T22:20:33.889Z,2.43
2024-05-09T22:23:04.681Z,2.37
2024-05-09T22:25:32.469Z,2.40
2024-05-09T22:28:00.924Z,2.60
2024-05-09T22:30:35.530Z,2.27
2024-05-09T22:33:10.806Z,2.60
2024-05-09T22:35:39.459Z,2.63
2024-05-09T22:38:06.623Z,2.83
2024-05-09T22:40:43.000Z,2.90
2024-05-09T22:43:21.099Z,3.20
2024-05-09T22:45:50.024Z,3.37
2024-05-09T22:48:17.443Z,2.97
2024-05-09T22:50:44.462Z,3.50
2024-05-09T22:53:11.232Z,3.30
2024-05-09T22:55:37.973Z,3.50
2024-05-09T22:58:05.023Z,3.20
2024-05-09T23:00:33.167Z,3.30
2024-05-09T23:03:01.340Z,3.20
2024-05-09T23:05:28.690Z,3.53
2024-05-09T23:07:55.658Z,3.57
2024-05-09T23:10:30.859Z,3.63
2024-05-09T23:13:02.274Z,3.00
2024-05-09T23:15:29.523Z,3.30
2024-05-09T23:17:57.123Z,3.53
2024-05-09T23:20:32.955Z,3.37
2024-05-09T23:23:05.101Z,3.20
2024-05-09T23:25:31.970Z,3.37
2024-05-09T23:27:58.901Z,3.10
2024-05-09T23:30:34.009Z,3.57
2024-05-09T23:33:05.792Z,3.43
2024-05-09T23:35:32.736Z,3.87
2024-05-09T23:37:59.694Z,3.93
2024-05-09T23:40:35.051Z,4.20
2024-05-09T23:43:06.473Z,3.57
2024-05-09T23:45:33.616Z,3.30
2024-05-09T23:48:01.055Z,3.10
2024-05-09T23:50:34.549Z,3.90
2024-05-09T23:53:05.129Z,3.20
2024-05-09T23:55:32.612Z,3.63
2024-05-09T23:58:01.412Z,3.73
